Terminal Aerodrome Forecast
Issued by NWS

Home | Current Version | Previous Version | Graphics & Text | Print | Product List | Glossary On
Versions: 1 2 3 4 5 6 7 8 9 10 11 12 13 14 15 16 17 18 19 20 21 22 23 24
000
FTUS43 KLOT 091135
TAFDPA
TAF
KDPA 091135Z 0912/1012 29011KT 4SM -SHSN BKN015 OVC020
     FM091300 32015G23KT P6SM -SHSN BKN015 BKN020
     FM091500 33017G27KT P6SM BKN025 OVC040
     FM100000 29009KT P6SM BKN100=

USA.gov is the U.S. government's official web portal to all federal, state and local government web resources and services.